Time;durP1;ratioP1;P1;durP2;ratioP2;P2;SDS_P1;SDS_P2;PMS_P1;PMS_P2;Temp;Humidity;BMP_temperature;BMP_pressure;BME280_temperature;BME280_humidity;BME280_pressure;Samples;Min_cycle;Max_cycle;Signal;HPM_P1;HPM_P2
2023/03/06 00:02:22;;;;;;;39.10;19.20;;;;;;;-0.73;100.00;98102.23;269828;1271;22603;-88
2023/03/06 00:08:26;;;;;;;44.50;20.70;;;;;;;-0.80;100.00;98112.01;269771;1268;22633;-89
2023/03/06 00:14:33;;;;;;;42.90;22.50;;;;;;;-0.80;100.00;98115.73;270163;1271;22486;-87
2023/03/06 00:20:58;;;;;;;42.90;19.90;;;;;;;-0.78;100.00;98118.98;269627;1267;22598;-86
2023/03/06 00:27:02;;;;;;;38.40;18.90;;;;;;;-0.81;100.00;98116.24;269863;1265;23295;-88
2023/03/06 00:33:17;;;;;;;33.80;18.00;;;;;;;-0.86;100.00;98110.39;269836;1272;22535;-88
2023/03/06 00:39:26;;;;;;;41.60;21.40;;;;;;;-0.83;100.00;98109.39;269786;1272;25429;-89
2023/03/06 00:45:33;;;;;;;43.50;21.70;;;;;;;-0.80;100.00;98109.41;269801;1271;22539;-88
2023/03/06 00:51:37;;;;;;;34.30;17.90;;;;;;;-0.77;100.00;98109.80;269234;1264;22531;-89
2023/03/06 00:57:55;;;;;;;37.40;18.30;;;;;;;-0.83;100.00;98110.40;269507;1272;22534;-89
2023/03/06 01:04:01;;;;;;;30.30;16.20;;;;;;;-0.87;100.00;98108.63;269615;1271;22476;-89
2023/03/06 01:32:25;;;;;;;40.80;22.40;;;;;;;-0.68;100.00;98108.73;260695;1295;2586694;-88
2023/03/06 01:38:27;;;;;;;41.60;20.90;;;;;;;-0.60;100.00;98099.22;268526;1279;22835;-88
2023/03/06 01:44:29;;;;;;;37.30;19.70;;;;;;;-0.68;100.00;98097.89;267777;1279;22573;-87
2023/03/06 01:50:30;;;;;;;35.70;19.70;;;;;;;-0.76;100.00;98089.52;267438;1279;23694;-88
2023/03/06 01:56:32;;;;;;;41.40;20.70;;;;;;;-0.84;100.00;98077.13;267246;1278;24403;-88
2023/03/06 02:02:34;;;;;;;39.10;20.50;;;;;;;-0.93;100.00;98075.46;267431;1270;23777;-88
2023/03/06 02:08:37;;;;;;;42.70;21.00;;;;;;;-0.98;100.00;98082.08;266837;1279;22555;-88
2023/03/06 02:14:41;;;;;;;36.80;20.30;;;;;;;-0.95;100.00;98078.90;267383;1279;22431;-87
2023/03/06 02:20:46;;;;;;;38.60;22.00;;;;;;;-0.93;100.00;98077.09;269685;1279;22441;-89
2023/03/06 02:26:51;;;;;;;41.90;22.10;;;;;;;-0.90;100.00;98076.79;269793;1279;23702;-88
2023/03/06 02:32:54;;;;;;;39.00;22.00;;;;;;;-0.90;100.00;98070.13;268042;1279;22549;-88
2023/03/06 02:38:56;;;;;;;44.90;21.60;;;;;;;-0.93;100.00;98065.33;267026;1279;22548;-88
2023/03/06 02:45:00;;;;;;;44.30;22.30;;;;;;;-1.02;100.00;98063.29;267373;1279;24286;-87
2023/03/06 02:51:02;;;;;;;38.30;21.00;;;;;;;-1.11;100.00;98063.89;267542;1280;23218;-90
2023/03/06 02:57:03;;;;;;;45.00;21.90;;;;;;;-1.15;100.00;98064.24;267624;1279;22747;-89
2023/03/06 03:03:06;;;;;;;35.60;19.90;;;;;;;-1.17;100.00;98056.13;267704;1277;23917;-87
2023/03/06 03:09:08;;;;;;;47.70;22.40;;;;;;;-1.22;100.00;98048.92;267856;1279;22544;-87
2023/03/06 03:15:10;;;;;;;47.40;23.30;;;;;;;-1.25;100.00;98042.89;267097;1279;22581;-88
2023/03/06 03:21:13;;;;;;;48.00;22.80;;;;;;;-1.25;100.00;98043.81;268517;1279;22294;-88
2023/03/06 03:27:15;;;;;;;44.80;23.10;;;;;;;-1.22;100.00;98047.14;271633;1279;23188;-88
2023/03/06 03:33:17;;;;;;;44.10;22.50;;;;;;;-1.16;100.00;98044.34;270763;1279;22394;-87
2023/03/06 03:39:19;;;;;;;46.20;22.60;;;;;;;-1.10;100.00;98041.35;272082;1274;22175;-88
2023/03/06 03:45:21;;;;;;;49.20;24.30;;;;;;;-1.05;100.00;98035.27;272104;1276;22403;-86
2023/03/06 03:51:23;;;;;;;50.20;24.50;;;;;;;-1.01;100.00;98026.93;272009;1276;22475;-88
2023/03/06 03:57:27;;;;;;;50.10;23.30;;;;;;;-0.97;100.00;98025.24;271548;1276;22557;-88
2023/03/06 04:03:30;;;;;;;43.90;22.40;;;;;;;-0.94;100.00;98024.23;268489;1275;23656;-88
2023/03/06 04:09:32;;;;;;;42.90;22.80;;;;;;;-0.90;100.00;98017.30;271788;1275;22423;-88
2023/03/06 04:15:34;;;;;;;45.20;22.30;;;;;;;-0.86;100.00;98005.13;272142;1275;22427;-87
2023/03/06 04:21:36;;;;;;;49.80;23.80;;;;;;;-0.82;100.00;98010.82;272312;1275;22462;-89
2023/03/06 04:27:38;;;;;;;38.50;20.80;;;;;;;-0.78;100.00;98010.83;273516;1267;22393;-88
2023/03/06 04:33:40;;;;;;;41.00;21.20;;;;;;;-0.74;100.00;98006.67;273437;1267;22492;-89
2023/03/06 04:39:43;;;;;;;43.50;20.90;;;;;;;-0.71;100.00;98011.08;273464;1267;22392;-88
2023/03/06 04:45:45;;;;;;;43.80;22.10;;;;;;;-0.68;100.00;98011.52;269829;1267;22604;-88
2023/03/06 04:51:46;;;;;;;42.90;22.20;;;;;;;-0.67;100.00;98005.39;272146;1268;22182;-90
2023/03/06 04:57:48;;;;;;;41.70;20.50;;;;;;;-0.66;100.00;98000.84;273176;1267;23477;-88
2023/03/06 05:03:50;;;;;;;46.40;22.20;;;;;;;-0.65;100.00;97998.37;272263;1267;22250;-88
2023/03/06 05:09:52;;;;;;;44.10;20.30;;;;;;;-0.66;100.00;97999.01;271416;1268;22534;-89
2023/03/06 05:15:54;;;;;;;46.20;23.20;;;;;;;-0.65;100.00;97996.73;273410;1267;22403;-89
2023/03/06 05:21:55;;;;;;;41.70;21.00;;;;;;;-0.64;100.00;97999.09;273216;1269;22877;-88
2023/03/06 05:27:57;;;;;;;41.60;20.60;;;;;;;-0.62;100.00;98000.30;273473;1267;22401;-88
2023/03/06 05:33:59;;;;;;;39.80;21.30;;;;;;;-0.66;100.00;98003.75;273470;1267;23111;-89
2023/03/06 05:40:04;;;;;;;44.50;22.70;;;;;;;-0.70;100.00;98005.35;272539;1266;23329;-88
2023/03/06 05:46:07;;;;;;;46.20;22.10;;;;;;;-0.69;100.00;98008.33;270090;1266;22619;-88
2023/03/06 05:52:10;;;;;;;46.80;24.80;;;;;;;-0.68;100.00;98002.52;270502;1266;22992;-88
2023/03/06 05:58:12;;;;;;;59.00;29.60;;;;;;;-0.67;100.00;98001.51;273482;1262;22481;-88
2023/03/06 06:04:14;;;;;;;56.00;27.90;;;;;;;-0.58;100.00;97997.83;273625;1267;22204;-89
2023/03/06 06:10:16;;;;;;;55.30;26.00;;;;;;;-0.51;100.00;97997.81;271260;1267;22522;-89
2023/03/06 06:16:18;;;;;;;51.10;26.20;;;;;;;-0.44;100.00;97991.17;269742;1266;22303;-90
2023/03/06 06:22:19;;;;;;;56.50;28.60;;;;;;;-0.26;100.00;97993.38;270336;1267;24254;-92
2023/03/06 06:28:21;;;;;;;51.70;25.10;;;;;;;-0.14;100.00;97999.35;270172;1266;24320;-91
2023/03/06 06:34:23;;;;;;;47.30;23.90;;;;;;;-0.06;100.00;98004.04;270630;1266;23509;-89
2023/03/06 06:40:26;;;;;;;41.40;23.10;;;;;;;0.05;100.00;98008.56;269745;1267;22989;-89
2023/03/06 06:46:28;;;;;;;51.30;29.90;;;;;;;0.08;100.00;97998.27;269788;1267;22528;-90
2023/03/06 06:52:29;;;;;;;42.90;24.30;;;;;;;0.18;100.00;97995.43;269411;1266;22742;-89
2023/03/06 06:58:31;;;;;;;45.70;25.10;;;;;;;0.42;100.00;97993.66;270684;1267;22524;-90
2023/03/06 07:04:33;;;;;;;45.10;24.20;;;;;;;0.97;100.00;97992.30;272803;1267;23000;-90
2023/03/06 07:10:38;;;;;;;51.20;29.70;;;;;;;1.26;100.00;97977.20;272046;1266;22503;-89
2023/03/06 07:16:40;;;;;;;55.70;28.00;;;;;;;1.67;100.00;97974.78;270242;1266;22525;-90
2023/03/06 07:22:41;;;;;;;37.60;22.90;;;;;;;2.14;100.00;97977.52;269082;1266;25247;-90
2023/03/06 07:28:43;;;;;;;34.30;19.10;;;;;;;2.12;100.00;97983.66;270978;1266;23788;-89
2023/03/06 08:08:26;;;;;;;38.40;21.90;;;;;;;2.12;100.00;98008.15;259786;1295;5454200;-91
2023/03/06 08:14:33;;;;;;;38.60;20.40;;;;;;;2.28;100.00;98005.38;269805;1269;22598;-93
2023/03/06 08:20:37;;;;;;;41.20;21.10;;;;;;;2.41;100.00;98004.74;269797;1269;22546;-91
2023/03/06 08:26:41;;;;;;;40.00;20.90;;;;;;;2.69;100.00;97997.68;269628;1269;22561;-91
2023/03/06 08:32:46;;;;;;;39.30;20.30;;;;;;;2.92;100.00;97993.95;269900;1256;22783;-91
2023/03/06 08:39:16;;;;;;;36.50;19.00;;;;;;;3.14;99.78;97993.42;269861;1269;23191;-92
2023/03/06 08:45:28;;;;;;;30.70;16.00;;;;;;;3.40;99.65;97994.80;269529;1269;22572;-91
2023/03/06 08:51:53;;;;;;;20.80;11.50;;;;;;;3.69;99.56;97994.89;269589;1269;24286;-93
2023/03/06 08:58:00;;;;;;;12.20;7.70;;;;;;;3.99;98.40;97999.88;269730;1264;22696;-93
2023/03/06 09:04:10;;;;;;;15.90;8.10;;;;;;;4.57;98.10;98004.29;269569;1269;23223;-92
2023/03/06 09:11:27;;;;;;;12.40;6.90;;;;;;;5.25;96.65;98004.08;270231;1269;25447;-94
2023/03/06 09:18:03;;;;;;;7.70;4.70;;;;;;;6.08;95.21;97997.45;270770;1269;23592;-96
2023/03/06 09:30:54;;;;;;;7.90;4.80;;;;;;;7.40;89.77;97993.85;272254;1271;22423;-88
2023/03/06 09:36:56;;;;;;;6.20;4.60;;;;;;;7.90;88.82;97993.00;272595;1272;22272;-89
2023/03/06 09:42:58;;;;;;;5.50;3.90;;;;;;;8.48;87.23;97995.79;272488;1272;22254;-89
2023/03/06 09:49:12;;;;;;;8.50;4.20;;;;;;;8.83;82.89;97993.64;272283;1271;23036;-92
2023/03/06 10:08:36;;;;;;;7.10;5.00;;;;;;;9.85;77.34;97990.25;262757;1292;5462131;-84
2023/03/06 10:15:00;;;;;;;7.90;5.30;;;;;;;10.44;74.85;97983.63;270221;1279;22303;-83
2023/03/06 10:21:10;;;;;;;12.30;6.10;;;;;;;10.79;73.94;97978.52;270489;1276;22428;-83
2023/03/06 10:27:49;;;;;;;9.80;5.50;;;;;;;10.98;71.70;97971.27;271042;1266;24195;-84
2023/03/06 10:33:55;;;;;;;7.60;5.20;;;;;;;10.90;69.41;97961.86;269877;1279;22207;-83
2023/03/06 10:40:02;;;;;;;9.00;5.70;;;;;;;10.85;68.72;97955.40;270302;1279;22266;-86
2023/03/06 10:46:50;;;;;;;8.70;5.60;;;;;;;11.06;68.09;97942.65;268956;1279;22638;-83
2023/03/06 10:53:18;;;;;;;7.50;4.90;;;;;;;11.04;66.35;97934.91;269006;1269;22620;-83
2023/03/06 10:59:37;;;;;;;10.20;6.00;;;;;;;11.04;66.10;97927.80;267561;1278;24406;-83
2023/03/06 11:05:38;;;;;;;6.00;4.80;;;;;;;10.96;65.96;97920.36;269983;1278;22432;-83
2023/03/06 11:11:40;;;;;;;7.50;5.30;;;;;;;11.13;65.47;97915.91;268727;1279;23380;-83
2023/03/06 11:18:04;;;;;;;6.40;4.90;;;;;;;11.10;65.19;97909.52;268078;1279;22586;-84
2023/03/06 11:24:31;;;;;;;7.70;5.50;;;;;;;11.22;64.39;97900.51;269241;1279;22431;-84
2023/03/06 11:30:54;;;;;;;8.00;5.20;;;;;;;11.48;63.06;97891.09;268100;1279;22609;-83
2023/03/06 11:38:03;;;;;;;9.00;5.30;;;;;;;11.29;62.77;97885.88;269511;1279;22545;-82
2023/03/06 11:44:58;;;;;;;9.00;6.30;;;;;;;10.98;61.59;97869.33;270892;1279;22477;-84
2023/03/06 11:51:24;;;;;;;8.40;5.50;;;;;;;10.69;60.54;97862.45;272428;1269;22393;-83
2023/03/06 11:57:52;;;;;;;12.00;6.70;;;;;;;10.09;60.11;97848.73;272196;1269;22213;-83
2023/03/06 12:04:32;;;;;;;11.40;6.40;;;;;;;9.38;59.97;97841.34;270977;1269;23666;-83
2023/03/06 12:10:58;;;;;;;10.80;5.70;;;;;;;8.78;60.11;97831.61;272472;1269;22436;-84
2023/03/06 12:17:19;;;;;;;8.70;5.90;;;;;;;8.48;59.83;97823.91;268674;1279;22836;-83
2023/03/06 12:23:28;;;;;;;11.60;7.10;;;;;;;8.20;59.89;97822.84;267788;1277;25220;-83
2023/03/06 12:30:09;;;;;;;10.00;5.50;;;;;;;7.87;59.82;97821.57;272182;1269;22516;-84
2023/03/06 12:36:17;;;;;;;10.70;6.70;;;;;;;7.48;59.24;97819.09;270236;1270;22572;-82
2023/03/06 12:43:04;;;;;;;8.80;6.10;;;;;;;7.35;59.80;97812.11;270314;1270;22338;-83
2023/03/06 12:49:30;;;;;;;10.50;6.30;;;;;;;7.37;59.63;97805.98;268636;1275;22594;-84
2023/03/06 12:55:43;;;;;;;13.00;6.20;;;;;;;7.32;59.50;97801.91;270122;1270;22233;-84
2023/03/06 13:02:23;;;;;;;10.80;5.90;;;;;;;7.16;59.54;97803.91;268751;1275;22488;-83
2023/03/06 13:08:51;;;;;;;9.60;5.90;;;;;;;6.87;60.00;97805.48;269222;1275;22209;-83
2023/03/06 13:14:58;;;;;;;11.10;6.70;;;;;;;6.76;59.56;97797.84;269152;1275;23057;-83
2023/03/06 13:21:00;;;;;;;18.90;9.20;;;;;;;6.75;59.30;97791.16;269427;1270;22591;-83
2023/03/06 13:27:04;;;;;;;11.30;6.70;;;;;;;6.80;59.51;97784.20;271630;1270;22418;-83
2023/03/06 13:34:04;;;;;;;13.80;6.70;;;;;;;7.02;59.85;97774.08;271363;1257;22168;-83
2023/03/06 13:41:21;;;;;;;12.80;6.40;;;;;;;7.13;59.75;97768.45;272788;1269;22408;-82
2023/03/06 13:47:41;;;;;;;10.30;6.50;;;;;;;7.05;59.48;97765.23;273628;1261;22199;-83
2023/03/06 13:54:15;;;;;;;9.20;6.10;;;;;;;6.94;59.36;97768.36;273929;1274;22176;-82
2023/03/06 14:00:56;;;;;;;9.40;5.50;;;;;;;6.33;60.51;97776.23;270853;1269;23590;-83
2023/03/06 14:07:18;;;;;;;12.70;5.10;;;;;;;5.63;62.30;97784.38;273688;1268;22402;-82
2023/03/06 14:13:50;;;;;;;8.20;5.10;;;;;;;5.14;63.75;97789.42;273423;1259;22185;-83
2023/03/06 14:19:57;;;;;;;11.40;5.00;;;;;;;4.83;64.75;97788.79;273585;1267;22243;-82
2023/03/06 14:26:04;;;;;;;10.10;5.10;;;;;;;4.77;65.70;97793.59;271957;1267;22541;-82
2023/03/06 14:32:09;;;;;;;9.10;4.10;;;;;;;4.83;65.85;97793.20;270214;1257;22539;-83
2023/03/06 14:38:12;;;;;;;13.20;5.20;;;;;;;4.87;65.84;97787.83;269765;1267;22615;-82
2023/03/06 14:44:25;;;;;;;10.20;4.80;;;;;;;4.91;66.04;97791.90;270929;1257;22395;-83
2023/03/06 14:50:34;;;;;;;8.80;4.20;;;;;;;4.92;65.91;97788.59;272293;1267;22945;-86
2023/03/06 14:56:40;;;;;;;12.00;5.60;;;;;;;4.81;65.76;97781.94;273772;1267;22567;-83
2023/03/06 15:02:42;;;;;;;11.90;5.40;;;;;;;4.73;66.22;97776.70;271491;1266;22391;-83
2023/03/06 15:08:47;;;;;;;13.00;5.50;;;;;;;4.69;66.45;97773.87;271308;1267;22289;-84
2023/03/06 15:15:16;;;;;;;11.60;5.20;;;;;;;4.65;66.74;97768.39;271055;1267;23132;-83
2023/03/06 15:21:19;;;;;;;12.00;5.60;;;;;;;4.65;67.36;97764.83;270105;1258;22215;-85
2023/03/06 15:27:28;;;;;;;12.30;6.50;;;;;;;4.63;67.95;97765.73;269778;1267;22663;-83
2023/03/06 15:33:30;;;;;;;14.00;7.10;;;;;;;4.54;68.15;97763.50;271093;1267;23131;-83
2023/03/06 15:39:33;;;;;;;12.40;6.60;;;;;;;4.52;67.75;97759.60;272306;1267;23759;-83
2023/03/06 15:45:34;;;;;;;11.70;6.00;;;;;;;4.50;67.99;97758.48;271948;1254;22646;-83
2023/03/06 15:51:36;;;;;;;12.10;5.90;;;;;;;4.45;68.57;97763.04;268917;1267;24470;-82
2023/03/06 15:57:40;;;;;;;14.40;5.60;;;;;;;4.41;68.89;97760.75;270600;1267;23187;-83
2023/03/06 16:03:43;;;;;;;8.60;3.80;;;;;;;4.35;67.72;97757.63;271775;1267;25396;-83
2023/03/06 16:09:59;;;;;;;8.30;3.30;;;;;;;4.27;66.13;97759.77;270168;1253;22990;-82
2023/03/06 16:16:01;;;;;;;9.20;3.80;;;;;;;4.19;65.32;97761.09;270303;1267;22868;-83
2023/03/06 16:22:03;;;;;;;8.10;3.50;;;;;;;4.09;64.87;97762.63;269736;1267;23239;-83
2023/03/06 16:28:10;;;;;;;9.10;3.60;;;;;;;3.99;64.80;97761.85;270144;1267;22270;-82
2023/03/06 16:34:12;;;;;;;7.40;3.70;;;;;;;3.84;65.48;97765.30;269624;1267;22694;-83
2023/03/06 16:40:17;;;;;;;12.40;5.70;;;;;;;3.70;66.06;97771.07;269732;1260;22557;-84
2023/03/06 16:46:21;;;;;;;19.70;8.20;;;;;;;3.58;66.17;97770.67;269872;1267;22215;-83
2023/03/06 16:52:23;;;;;;;15.80;7.30;;;;;;;3.51;65.72;97779.91;271194;1267;23247;-83
2023/03/06 16:58:25;;;;;;;20.80;8.60;;;;;;;3.52;66.26;97785.25;270502;1257;22557;-85
2023/03/06 17:04:27;;;;;;;19.20;7.10;;;;;;;3.48;67.04;97789.52;269538;1267;25130;-82
2023/03/06 17:10:29;;;;;;;16.40;7.70;;;;;;;3.41;67.58;97793.85;257664;1257;20002873;-83
2023/03/06 17:16:31;;;;;;;16.40;7.90;;;;;;;3.28;68.31;97796.60;271787;1267;23096;-83
2023/03/06 17:23:08;;;;;;;16.50;8.10;;;;;;;3.12;69.41;97797.29;273257;1267;23065;-83
2023/03/06 17:29:10;;;;;;;17.10;8.00;;;;;;;2.93;70.27;97795.64;273695;1256;23119;-83
2023/03/06 17:35:12;;;;;;;22.10;9.90;;;;;;;2.78;70.95;97796.55;273671;1267;22377;-83
2023/03/06 17:41:14;;;;;;;18.30;8.10;;;;;;;2.65;71.54;97797.02;273760;1256;22902;-83
2023/03/06 17:47:16;;;;;;;19.00;9.40;;;;;;;2.55;72.06;97794.33;273581;1260;23222;-83
2023/03/06 17:53:17;;;;;;;19.10;9.70;;;;;;;2.46;72.76;97790.48;273613;1257;22380;-83
2023/03/06 17:59:19;;;;;;;20.30;9.50;;;;;;;2.36;73.17;97789.01;271127;1267;22612;-84
2023/03/06 18:05:20;;;;;;;24.30;10.40;;;;;;;2.18;72.67;97792.04;271885;1266;22202;-84
2023/03/06 18:11:26;;;;;;;30.70;15.10;;;;;;;2.02;72.96;97793.97;272307;1267;23808;-83
2023/03/06 18:17:28;;;;;;;39.60;15.40;;;;;;;1.96;73.71;97794.27;272732;1267;22743;-83
2023/03/06 18:23:30;;;;;;;37.50;16.70;;;;;;;1.92;74.41;97792.86;270956;1267;22395;-83
2023/03/06 18:29:32;;;;;;;34.90;16.70;;;;;;;1.82;74.67;97790.97;273099;1257;24567;-83
2023/03/06 18:35:39;;;;;;;34.70;16.20;;;;;;;1.72;75.01;97789.72;273184;1266;22432;-83
2023/03/06 18:42:03;;;;;;;33.20;16.50;;;;;;;1.55;75.41;97788.73;273627;1267;22547;-84
2023/03/06 18:48:05;;;;;;;39.00;16.70;;;;;;;1.39;76.05;97788.98;273543;1267;22243;-83
2023/03/06 18:54:11;;;;;;;36.40;16.00;;;;;;;1.24;76.40;97788.27;272040;1267;22207;-83
2023/03/06 19:00:15;;;;;;;36.30;15.60;;;;;;;1.15;76.62;97785.70;271486;1267;22623;-83
2023/03/06 19:06:17;;;;;;;28.90;14.50;;;;;;;1.06;76.73;97789.60;270782;1267;22626;-83
2023/03/06 19:12:19;;;;;;;40.20;19.30;;;;;;;1.03;77.34;97790.65;273534;1267;22969;-83
2023/03/06 19:18:22;;;;;;;39.80;18.50;;;;;;;0.99;76.99;97784.77;273935;1267;22210;-83
2023/03/06 19:24:24;;;;;;;36.20;17.90;;;;;;;1.01;77.51;97783.35;270842;1267;22579;-83
2023/03/06 19:30:25;;;;;;;35.00;16.80;;;;;;;1.04;77.46;97781.69;271535;1267;25268;-83
2023/03/06 19:36:31;;;;;;;34.20;17.00;;;;;;;1.07;77.35;97781.36;273636;1267;22428;-83
2023/03/06 19:42:33;;;;;;;37.70;18.00;;;;;;;1.08;77.68;97779.94;273714;1267;23177;-83
2023/03/06 19:48:35;;;;;;;43.70;19.50;;;;;;;1.08;78.24;97779.27;273571;1267;22420;-83
2023/03/06 19:54:37;;;;;;;45.10;20.70;;;;;;;1.06;78.40;97777.56;273988;1269;22809;-83
2023/03/06 20:00:40;;;;;;;48.40;21.70;;;;;;;0.98;78.58;97774.87;272653;1267;22442;-84
2023/03/06 20:06:44;;;;;;;49.50;22.30;;;;;;;0.85;78.69;97773.98;272178;1267;22527;-82
2023/03/06 20:12:45;;;;;;;50.10;22.00;;;;;;;0.70;78.97;97776.98;270814;1263;24186;-83
2023/03/06 20:18:47;;;;;;;48.50;23.70;;;;;;;0.54;79.39;97780.40;271792;1256;22301;-83
2023/03/06 20:24:58;;;;;;;49.00;22.80;;;;;;;0.43;79.83;97786.23;272921;1259;22470;-82
2023/03/06 20:31:08;;;;;;;58.00;27.40;;;;;;;0.31;80.29;97789.94;270878;1267;22605;-84
2023/03/06 20:37:09;;;;;;;57.00;27.20;;;;;;;0.24;80.67;97788.31;273438;1267;22634;-83
2023/03/06 20:43:11;;;;;;;59.60;30.00;;;;;;;0.17;80.99;97784.54;272379;1267;23015;-82
2023/03/06 20:49:13;;;;;;;73.40;33.70;;;;;;;0.12;81.41;97786.25;272811;1267;22545;-83
2023/03/06 20:55:15;;;;;;;73.60;34.30;;;;;;;0.02;81.56;97791.52;271859;1267;22921;-83
2023/03/06 21:01:27;;;;;;;64.60;32.90;;;;;;;-0.11;81.47;97786.72;273588;1257;22465;-84
2023/03/06 21:07:31;;;;;;;64.80;31.80;;;;;;;-0.26;81.73;97791.60;273734;1253;23931;-83
2023/03/06 21:13:33;;;;;;;67.70;33.30;;;;;;;-0.34;82.17;97788.63;272226;1267;22521;-82
2023/03/06 21:19:35;;;;;;;67.80;32.20;;;;;;;-0.41;82.47;97787.17;271694;1267;22376;-83
2023/03/06 21:26:17;;;;;;;64.90;32.20;;;;;;;-0.47;83.07;97780.42;273808;1267;22544;-83
2023/03/06 21:32:39;;;;;;;60.60;28.40;;;;;;;-0.52;83.44;97781.42;274262;1266;23267;-83
2023/03/06 21:38:41;;;;;;;63.60;29.80;;;;;;;-0.64;82.65;97779.77;274162;1269;22218;-83
2023/03/06 21:44:43;;;;;;;65.00;30.50;;;;;;;-0.71;82.93;97778.98;273598;1263;22433;-83
2023/03/06 21:50:44;;;;;;;63.70;31.50;;;;;;;-0.73;83.86;97776.14;273832;1257;22367;-83
2023/03/06 21:56:53;;;;;;;59.10;31.80;;;;;;;-0.72;84.44;97777.53;274028;1267;22350;-83
2023/03/06 22:02:58;;;;;;;76.90;33.70;;;;;;;-0.74;84.47;97769.58;273598;1257;23278;-83
2023/03/06 22:09:00;;;;;;;82.60;34.60;;;;;;;-0.78;84.30;97766.43;273592;1251;84330;-84
2023/03/06 22:15:02;;;;;;;76.70;36.00;;;;;;;-0.82;84.59;97758.48;273584;1269;23003;-82
2023/03/06 22:21:08;;;;;;;78.60;34.40;;;;;;;-0.91;84.81;97754.46;273835;1269;23050;-83
2023/03/06 22:27:10;;;;;;;66.20;30.60;;;;;;;-0.98;85.03;97749.08;272967;1267;22256;-84
2023/03/06 22:33:15;;;;;;;53.10;26.90;;;;;;;-1.03;85.10;97747.73;274080;1263;22174;-83
2023/03/06 22:39:17;;;;;;;60.80;27.90;;;;;;;-1.06;85.33;97746.30;273208;1267;22693;-84
2023/03/06 22:46:00;;;;;;;58.20;28.10;;;;;;;-1.11;85.71;97749.91;273858;1268;22304;-85
2023/03/06 22:52:42;;;;;;;62.30;29.40;;;;;;;-1.17;85.87;97754.96;273593;1267;22404;-84
2023/03/06 22:58:44;;;;;;;61.80;26.40;;;;;;;-1.24;86.10;97757.06;273638;1267;22235;-84
2023/03/06 23:04:52;;;;;;;67.90;29.60;;;;;;;-1.30;86.39;97755.65;272995;1263;23426;-84
2023/03/06 23:11:21;;;;;;;60.40;27.10;;;;;;;-1.29;87.00;97755.69;270407;1263;23398;-84
2023/03/06 23:17:41;;;;;;;49.60;25.10;;;;;;;-1.20;87.89;97750.59;273282;1269;23765;-86
2023/03/06 23:24:02;;;;;;;46.20;24.20;;;;;;;-1.11;88.17;97748.36;272157;1265;23870;-84
2023/03/06 23:30:04;;;;;;;51.80;24.80;;;;;;;-1.08;88.04;97748.94;270150;1267;22520;-85
2023/03/06 23:36:09;;;;;;;61.00;27.70;;;;;;;-1.09;87.84;97752.42;272121;1267;22384;-85
2023/03/06 23:42:33;;;;;;;51.50;24.00;;;;;;;-1.16;87.63;97759.05;272369;1263;24173;-84
2023/03/06 23:49:01;;;;;;;63.30;27.90;;;;;;;-1.19;88.06;97761.57;271633;1267;23193;-85
2023/03/06 23:55:07;;;;;;;54.90;25.90;;;;;;;-1.17;88.19;97762.79;270699;1267;22627;-84
